createdAt,value
2018-06-14T00:00:35.690Z,16.59
2018-06-14T00:03:04.169Z,16.57
2018-06-14T00:05:32.516Z,16.52
2018-06-14T00:08:00.876Z,16.52
2018-06-14T00:10:29.235Z,16.52
2018-06-14T00:12:57.616Z,16.52
2018-06-14T00:15:25.930Z,16.54
2018-06-14T00:17:54.234Z,16.54
2018-06-14T00:20:22.567Z,16.51
2018-06-14T00:22:50.890Z,16.47
2018-06-14T00:25:19.238Z,16.49
2018-06-14T00:27:47.655Z,16.51
2018-06-14T00:30:15.981Z,16.46
2018-06-14T00:32:44.421Z,16.46
2018-06-14T00:35:12.764Z,16.47
2018-06-14T00:37:41.043Z,16.43
2018-06-14T00:40:09.389Z,16.41
2018-06-14T00:42:37.748Z,16.37
2018-06-14T00:45:06.080Z,16.34
2018-06-14T00:47:34.456Z,16.28
2018-06-14T00:50:02.827Z,16.26
2018-06-14T00:52:31.132Z,16.26
2018-06-14T00:54:59.550Z,16.28
2018-06-14T00:57:29.351Z,16.27
2018-06-14T00:59:57.947Z,16.26
2018-06-14T01:02:26.748Z,16.24
2018-06-14T01:04:55.068Z,16.24
2018-06-14T01:07:23.431Z,16.25
2018-06-14T01:09:51.768Z,16.24
2018-06-14T01:12:20.079Z,16.25
2018-06-14T01:14:48.455Z,16.22
2018-06-14T01:17:16.825Z,16.17
2018-06-14T01:19:45.144Z,16.11
2018-06-14T01:22:13.450Z,16.04
2018-06-14T01:24:41.931Z,16.04
2018-06-14T01:27:11.316Z,16.04
2018-06-14T01:29:39.888Z,16.02
2018-06-14T01:32:08.218Z,16.01
2018-06-14T01:34:36.555Z,15.97
2018-06-14T01:37:04.939Z,15.93
2018-06-14T01:39:33.293Z,15.89
2018-06-14T01:42:02.267Z,15.91
2018-06-14T01:44:30.631Z,15.88
2018-06-14T01:46:58.980Z,15.85
2018-06-14T01:49:27.286Z,15.82
2018-06-14T01:51:56.335Z,15.80
2018-06-14T01:54:24.647Z,15.81
2018-06-14T01:56:54.075Z,15.79
2018-06-14T01:59:22.439Z,15.77
2018-06-14T02:01:50.967Z,15.78
2018-06-14T02:04:19.345Z,15.74
2018-06-14T02:06:47.699Z,15.73
2018-06-14T02:09:16.021Z,15.71
2018-06-14T02:11:44.423Z,15.71
2018-06-14T02:14:12.778Z,15.71
2018-06-14T02:16:41.191Z,15.69
2018-06-14T02:19:09.671Z,15.69
2018-06-14T02:21:38.015Z,15.67
2018-06-14T02:24:06.371Z,15.64
2018-06-14T02:26:34.771Z,15.64
2018-06-14T02:29:03.203Z,15.62
2018-06-14T02:31:31.624Z,15.56
2018-06-14T02:34:00.028Z,15.58
2018-06-14T02:36:28.411Z,15.60
2018-06-14T02:38:56.849Z,15.62
2018-06-14T02:41:25.231Z,15.62
2018-06-14T02:43:54.191Z,15.62
2018-06-14T02:46:22.658Z,15.61
2018-06-14T02:48:50.995Z,15.60
2018-06-14T02:51:19.326Z,15.58
2018-06-14T02:53:47.676Z,15.61
2018-06-14T02:56:16.632Z,15.61
2018-06-14T02:58:45.020Z,15.59
2018-06-14T03:01:13.397Z,15.60
2018-06-14T03:03:41.795Z,15.61
2018-06-14T03:06:10.192Z,15.62
2018-06-14T03:08:38.676Z,15.62
2018-06-14T03:11:06.963Z,15.60
2018-06-14T03:13:35.421Z,15.57
2018-06-14T03:16:03.779Z,15.55
2018-06-14T03:18:32.116Z,15.54
2018-06-14T03:21:03.567Z,15.56
2018-06-14T03:23:32.299Z,15.55
2018-06-14T03:26:00.943Z,15.52
2018-06-14T03:28:29.338Z,15.51
2018-06-14T03:30:57.690Z,15.52
2018-06-14T03:33:26.075Z,15.51
2018-06-14T03:35:54.391Z,15.51
2018-06-14T03:38:22.846Z,15.51
2018-06-14T03:40:51.272Z,15.54
2018-06-14T03:43:19.499Z,15.55
2018-06-14T03:45:47.868Z,15.55
2018-06-14T03:48:16.187Z,15.57
2018-06-14T03:50:44.531Z,15.57
2018-06-14T03:53:13.889Z,15.58
2018-06-14T03:55:42.199Z,15.56
2018-06-14T03:58:12.631Z,15.56
2018-06-14T04:00:41.059Z,15.56
2018-06-14T04:03:09.376Z,15.56
2018-06-14T04:05:37.764Z,15.53
2018-06-14T04:08:06.154Z,15.51
2018-06-14T04:10:34.474Z,15.48
2018-06-14T04:13:02.915Z,15.47
2018-06-14T04:15:31.292Z,15.45
2018-06-14T04:18:02.103Z,15.48
2018-06-14T04:20:31.396Z,15.50
2018-06-14T04:23:00.282Z,15.51
2018-06-14T04:25:28.803Z,15.52
2018-06-14T04:27:57.223Z,15.52
2018-06-14T04:30:26.423Z,15.49
2018-06-14T04:32:54.799Z,15.53
2018-06-14T04:35:23.227Z,15.55
2018-06-14T04:37:51.983Z,15.55
2018-06-14T04:40:20.367Z,15.58
2018-06-14T04:42:48.752Z,15.61
2018-06-14T04:45:17.209Z,15.63
2018-06-14T04:47:45.791Z,15.65
2018-06-14T04:50:14.155Z,15.68
2018-06-14T04:52:42.525Z,15.68
2018-06-14T04:55:10.855Z,15.66
2018-06-14T04:57:39.179Z,15.65
2018-06-14T05:00:09.220Z,15.66
2018-06-14T05:02:37.602Z,15.67
2018-06-14T05:05:06.739Z,15.67
2018-06-14T05:07:35.079Z,15.69
2018-06-14T05:10:03.546Z,15.71
2018-06-14T05:12:31.888Z,15.73
2018-06-14T05:15:00.229Z,15.75
2018-06-14T05:17:28.586Z,15.77
2018-06-14T05:19:56.907Z,15.80
2018-06-14T05:22:25.386Z,15.82
2018-06-14T05:24:53.753Z,15.84
2018-06-14T05:27:22.099Z,15.86
2018-06-14T05:29:50.403Z,15.88
2018-06-14T05:32:18.839Z,15.92
2018-06-14T05:34:47.191Z,15.93
2018-06-14T05:37:15.561Z,15.95
2018-06-14T05:39:43.888Z,15.97
2018-06-14T05:42:12.281Z,15.98
2018-06-14T05:44:40.585Z,15.99
2018-06-14T05:47:09.555Z,16.00
2018-06-14T05:49:37.926Z,16.00
2018-06-14T05:52:06.323Z,16.01
2018-06-14T05:54:34.679Z,16.01
2018-06-14T05:57:03.033Z,16.02
2018-06-14T05:59:31.376Z,16.04
2018-06-14T06:01:59.694Z,16.05
2018-06-14T06:04:28.085Z,16.08
2018-06-14T06:06:56.444Z,16.08
2018-06-14T06:09:24.796Z,16.08
2018-06-14T06:11:53.137Z,16.11
2018-06-14T06:14:21.434Z,16.12
2018-06-14T06:16:49.828Z,16.16
2018-06-14T06:19:18.187Z,16.18
2018-06-14T06:21:46.547Z,16.17
2018-06-14T06:24:15.003Z,16.22
2018-06-14T06:26:43.323Z,16.25
2018-06-14T06:29:11.687Z,16.30
2018-06-14T06:31:40.035Z,16.33
2018-06-14T06:34:08.379Z,16.34
2018-06-14T06:36:36.745Z,16.37
2018-06-14T06:39:08.863Z,16.40
2018-06-14T06:41:37.199Z,16.43
2018-06-14T06:44:05.515Z,16.48
2018-06-14T06:46:33.876Z,16.50
2018-06-14T06:49:02.172Z,16.52
2018-06-14T06:51:30.532Z,16.57
2018-06-14T06:53:58.923Z,16.60
2018-06-14T06:56:27.255Z,16.63
2018-06-14T06:58:55.598Z,16.65
2018-06-14T07:01:23.858Z,16.67
2018-06-14T07:03:52.299Z,16.69
2018-06-14T07:06:20.791Z,16.71
2018-06-14T07:08:49.096Z,16.70
2018-06-14T07:11:17.502Z,16.75
2018-06-14T07:13:45.833Z,16.77
2018-06-14T07:16:14.256Z,16.81
2018-06-14T07:18:42.587Z,16.83
2018-06-14T07:21:10.894Z,16.87
2018-06-14T07:23:39.306Z,16.94
2018-06-14T07:26:07.662Z,17.00
2018-06-14T07:28:36.019Z,17.01
2018-06-14T07:31:04.379Z,17.04
2018-06-14T07:33:32.700Z,17.07
2018-06-14T07:36:01.034Z,17.13
2018-06-14T07:38:29.371Z,17.17
2018-06-14T07:40:57.737Z,17.22
2018-06-14T07:43:26.072Z,17.26
2018-06-14T07:45:54.384Z,17.29
2018-06-14T07:48:23.563Z,17.31
2018-06-14T07:50:52.259Z,17.34
2018-06-14T07:53:21.504Z,17.35
2018-06-14T07:55:49.861Z,17.39
2018-06-14T07:58:18.419Z,17.42
2018-06-14T08:00:46.792Z,17.48
2018-06-14T08:03:15.200Z,17.50
2018-06-14T08:05:43.699Z,17.54
2018-06-14T08:08:12.170Z,17.59
2018-06-14T08:10:41.073Z,17.67
2018-06-14T08:13:09.494Z,17.69
2018-06-14T08:15:37.858Z,17.72
2018-06-14T08:18:06.155Z,17.77
2018-06-14T08:20:34.524Z,17.82
2018-06-14T08:23:02.865Z,17.87
2018-06-14T08:25:31.357Z,17.90
2018-06-14T08:27:59.732Z,17.95
2018-06-14T08:30:28.213Z,18.00
2018-06-14T08:32:56.566Z,18.04
2018-06-14T08:35:25.028Z,18.07
2018-06-14T08:37:54.058Z,18.09
2018-06-14T08:40:22.496Z,18.09
2018-06-14T08:42:50.938Z,18.14
2018-06-14T08:45:19.292Z,18.23
2018-06-14T08:47:47.747Z,18.36
2018-06-14T08:50:16.417Z,18.47
2018-06-14T08:52:44.816Z,18.56
2018-06-14T08:55:13.253Z,18.58
2018-06-14T08:57:41.736Z,18.65
2018-06-14T09:00:10.131Z,18.71
2018-06-14T09:02:38.481Z,18.80
2018-06-14T09:05:06.844Z,18.88
2018-06-14T09:07:35.180Z,18.94
2018-06-14T09:10:03.547Z,19.00
2018-06-14T09:12:31.896Z,19.05
2018-06-14T09:15:00.220Z,19.11
2018-06-14T09:17:28.575Z,19.19
2018-06-14T09:19:56.943Z,19.22
2018-06-14T09:22:25.311Z,19.19
2018-06-14T09:24:53.656Z,19.23
2018-06-14T09:27:21.992Z,19.24
2018-06-14T09:29:50.412Z,19.30
2018-06-14T09:32:18.704Z,19.35
2018-06-14T09:34:47.061Z,19.41
2018-06-14T09:37:15.391Z,19.46
2018-06-14T09:39:43.752Z,19.56
2018-06-14T09:42:12.139Z,19.58
2018-06-14T09:44:40.499Z,19.61
2018-06-14T09:47:09.219Z,19.61
2018-06-14T09:49:37.540Z,19.57
2018-06-14T09:52:06.092Z,19.61
2018-06-14T09:54:34.518Z,19.66
2018-06-14T09:57:02.971Z,19.72
2018-06-14T09:59:31.431Z,19.79
2018-06-14T10:01:59.787Z,19.83
2018-06-14T10:04:28.359Z,19.81
2018-06-14T10:06:56.706Z,19.81
2018-06-14T10:09:25.089Z,19.73
2018-06-14T10:11:53.482Z,19.65
2018-06-14T10:14:21.771Z,19.68
2018-06-14T10:16:50.139Z,19.66
2018-06-14T10:19:18.423Z,19.58
2018-06-14T10:21:46.894Z,19.46
2018-06-14T10:24:15.186Z,19.48
2018-06-14T10:26:43.508Z,19.52
2018-06-14T10:29:11.921Z,19.57
2018-06-14T10:31:40.280Z,19.60
2018-06-14T10:34:08.657Z,19.72
2018-06-14T10:36:37.262Z,19.85
2018-06-14T10:39:08.227Z,19.98
2018-06-14T10:41:36.772Z,20.13
2018-06-14T10:44:05.127Z,20.24
2018-06-14T10:46:33.558Z,20.38
2018-06-14T10:49:01.925Z,20.54
2018-06-14T10:51:30.254Z,20.79
2018-06-14T10:53:58.695Z,21.04
2018-06-14T10:56:27.202Z,21.27
2018-06-14T10:58:55.556Z,21.41
2018-06-14T11:01:23.959Z,21.49
2018-06-14T11:03:52.947Z,21.47
2018-06-14T11:06:21.299Z,21.50
2018-06-14T11:08:49.688Z,21.54
2018-06-14T11:11:18.080Z,21.61
2018-06-14T11:13:46.399Z,21.54
2018-06-14T11:16:14.711Z,21.60
2018-06-14T11:18:43.108Z,21.76
2018-06-14T11:21:11.583Z,21.82
2018-06-14T11:23:40.483Z,21.96
2018-06-14T11:26:08.938Z,22.15
2018-06-14T11:28:37.255Z,22.12
2018-06-14T11:31:05.593Z,22.13
2018-06-14T11:33:34.070Z,22.16
2018-06-14T11:36:02.351Z,22.05
2018-06-14T11:38:30.768Z,21.87
2018-06-14T11:40:59.306Z,21.79
2018-06-14T11:43:27.604Z,21.75
2018-06-14T11:45:55.989Z,21.73
2018-06-14T11:48:24.499Z,21.73
2018-06-14T11:50:53.159Z,21.73
2018-06-14T11:53:21.523Z,21.81
2018-06-14T11:55:49.888Z,21.86
2018-06-14T11:58:18.274Z,21.87
2018-06-14T12:00:46.560Z,21.84
2018-06-14T12:03:14.925Z,21.84
2018-06-14T12:05:43.411Z,21.92
2018-06-14T12:08:11.799Z,21.97
2018-06-14T12:10:40.191Z,21.94
2018-06-14T12:13:08.503Z,21.86
2018-06-14T12:15:36.855Z,21.81
2018-06-14T12:18:05.295Z,21.83
2018-06-14T12:20:33.692Z,21.99
2018-06-14T12:23:02.040Z,22.06
2018-06-14T12:25:30.418Z,22.21
2018-06-14T12:27:58.743Z,22.36
2018-06-14T12:30:27.151Z,22.40
2018-06-14T12:32:55.536Z,22.32
2018-06-14T12:35:23.912Z,22.23
2018-06-14T12:37:52.237Z,22.15
2018-06-14T12:40:20.648Z,21.99
2018-06-14T12:42:50.275Z,22.35
2018-06-14T12:45:18.587Z,22.40
2018-06-14T12:47:46.981Z,22.51
2018-06-14T12:50:15.355Z,22.57
2018-06-14T12:52:43.644Z,22.68
2018-06-14T12:55:12.023Z,22.71
2018-06-14T12:57:40.398Z,22.76
2018-06-14T13:00:08.743Z,22.75
2018-06-14T13:02:37.128Z,22.91
2018-06-14T13:05:05.520Z,23.11
2018-06-14T13:07:33.908Z,23.08
2018-06-14T13:10:02.224Z,23.01
2018-06-14T13:12:30.541Z,23.04
2018-06-14T13:14:58.863Z,23.07
2018-06-14T13:17:27.171Z,22.99
2018-06-14T13:19:55.494Z,22.94
2018-06-14T13:22:23.852Z,22.91
2018-06-14T13:24:52.228Z,22.86
2018-06-14T13:27:20.537Z,22.78
2018-06-14T13:29:48.845Z,22.72
2018-06-14T13:32:17.261Z,22.71
2018-06-14T13:34:45.561Z,22.59
2018-06-14T13:37:13.899Z,22.57
2018-06-14T13:39:42.199Z,22.52
2018-06-14T13:42:13.555Z,22.48
2018-06-14T13:44:41.923Z,22.45
2018-06-14T13:47:10.442Z,22.38
2018-06-14T13:49:38.868Z,22.41
2018-06-14T13:52:07.206Z,22.42
2018-06-14T13:54:35.625Z,22.46
2018-06-14T13:57:04.079Z,22.51
2018-06-14T13:59:32.400Z,22.57
2018-06-14T14:02:00.835Z,22.53
2018-06-14T14:04:29.184Z,22.54
2018-06-14T14:07:02.952Z,22.57
2018-06-14T14:09:31.335Z,22.54
2018-06-14T14:11:59.683Z,22.57
2018-06-14T14:14:28.516Z,22.58
2018-06-14T14:16:56.888Z,22.53
2018-06-14T14:19:25.259Z,22.48
2018-06-14T14:21:53.599Z,22.41
2018-06-14T14:24:22.485Z,22.36
2018-06-14T14:26:51.959Z,22.33
2018-06-14T14:29:20.340Z,22.31
2018-06-14T14:31:48.705Z,22.26
2018-06-14T14:34:17.171Z,22.25
2018-06-14T14:36:45.646Z,22.22
2018-06-14T14:39:14.193Z,22.19
2018-06-14T14:41:42.893Z,22.13
2018-06-14T14:44:11.300Z,22.04
2018-06-14T14:46:39.652Z,21.95
2018-06-14T14:49:07.996Z,21.91
2018-06-14T14:51:36.403Z,21.90
2018-06-14T14:54:04.836Z,21.87
2018-06-14T14:56:33.189Z,21.84
2018-06-14T14:59:01.671Z,21.70
2018-06-14T15:01:30.048Z,21.63
2018-06-14T15:03:58.656Z,21.50
2018-06-14T15:06:27.124Z,21.37
2018-06-14T15:08:55.585Z,21.28
2018-06-14T15:11:24.583Z,21.23
2018-06-14T15:13:53.117Z,21.14
2018-06-14T15:16:21.762Z,21.04
2018-06-14T15:18:50.187Z,20.96
2018-06-14T15:21:18.550Z,20.92
2018-06-14T15:23:52.070Z,20.88
2018-06-14T15:26:20.611Z,20.82
2018-06-14T15:28:49.176Z,20.78
2018-06-14T15:31:17.559Z,20.73
2018-06-14T15:33:46.153Z,20.68
2018-06-14T15:36:14.565Z,20.63
2018-06-14T15:38:43.756Z,20.61
2018-06-14T15:41:12.312Z,20.53
2018-06-14T15:43:40.680Z,20.41
2018-06-14T15:46:09.012Z,20.26
2018-06-14T15:48:37.418Z,20.13
2018-06-14T15:51:05.800Z,20.04
2018-06-14T15:53:34.284Z,19.90
2018-06-14T15:56:18.062Z,19.75
2018-06-14T15:58:46.775Z,19.59
2018-06-14T16:01:15.180Z,19.54
2018-06-14T16:03:43.576Z,19.41
2018-06-14T16:06:12.041Z,19.35
2018-06-14T16:08:40.436Z,19.29
2018-06-14T16:11:08.879Z,19.27
2018-06-14T16:13:37.260Z,19.29
2018-06-14T16:16:05.735Z,19.28
2018-06-14T16:18:34.184Z,19.28
2018-06-14T16:21:02.658Z,19.27
2018-06-14T16:23:31.101Z,19.27
2018-06-14T16:25:59.568Z,19.32
2018-06-14T16:28:28.232Z,19.33
2018-06-14T16:30:56.652Z,19.35
2018-06-14T16:33:25.185Z,19.34
2018-06-14T16:35:53.607Z,19.38
2018-06-14T16:38:21.927Z,19.41
2018-06-14T16:40:50.344Z,19.46
2018-06-14T16:43:18.745Z,19.52
2018-06-14T16:45:47.183Z,19.53
2018-06-14T16:48:15.703Z,19.54
2018-06-14T16:50:44.183Z,19.56
2018-06-14T16:53:12.915Z,19.54
2018-06-14T16:55:41.355Z,19.52
2018-06-14T16:58:09.838Z,19.51
2018-06-14T17:00:38.445Z,19.46
2018-06-14T17:03:06.996Z,19.42
2018-06-14T17:05:35.383Z,19.40
2018-06-14T17:08:03.894Z,19.48
2018-06-14T17:10:32.447Z,19.42
2018-06-14T17:13:00.933Z,19.30
2018-06-14T17:15:29.324Z,19.28
2018-06-14T17:17:59.739Z,19.30
2018-06-14T17:20:28.226Z,19.34
2018-06-14T17:22:56.735Z,19.30
2018-06-14T17:25:25.181Z,19.27
2018-06-14T17:27:53.572Z,19.26
2018-06-14T17:30:22.027Z,19.27
2018-06-14T17:32:50.413Z,19.28
2018-06-14T17:35:19.028Z,19.22
2018-06-14T17:37:47.460Z,19.20
2018-06-14T17:40:16.263Z,19.20
2018-06-14T17:42:44.703Z,19.23
2018-06-14T17:45:13.159Z,19.24
2018-06-14T17:47:41.890Z,19.25
2018-06-14T17:50:10.357Z,19.22
2018-06-14T17:52:38.776Z,19.20
2018-06-14T17:55:07.953Z,19.18
2018-06-14T17:57:36.403Z,19.19
2018-06-14T18:00:05.014Z,19.20
2018-06-14T18:02:33.523Z,19.21
2018-06-14T18:05:02.616Z,19.21
2018-06-14T18:07:30.443Z,19.19
2018-06-14T18:09:58.915Z,19.17
2018-06-14T18:12:27.324Z,19.19
2018-06-14T18:14:55.759Z,19.23
2018-06-14T18:17:24.169Z,19.24
2018-06-14T18:19:52.591Z,19.27
2018-06-14T18:22:21.058Z,19.27
2018-06-14T18:24:49.559Z,19.26
2018-06-14T18:27:18.074Z,19.26
2018-06-14T18:29:46.575Z,19.29
2018-06-14T18:32:15.016Z,19.25
2018-06-14T18:34:43.549Z,19.25
2018-06-14T18:37:12.125Z,19.24
2018-06-14T18:39:40.509Z,19.24
2018-06-14T18:42:09.203Z,19.25
2018-06-14T18:44:38.185Z,19.26
2018-06-14T18:47:06.758Z,19.28
2018-06-14T18:49:35.189Z,19.30
2018-06-14T18:52:03.632Z,19.29
2018-06-14T18:54:32.019Z,19.30
2018-06-14T18:57:00.860Z,19.32
2018-06-14T18:59:29.583Z,19.34
2018-06-14T19:01:57.984Z,19.37
2018-06-14T19:04:26.528Z,19.39
2018-06-14T19:06:55.147Z,19.40
2018-06-14T19:09:23.811Z,19.37
2018-06-14T19:11:52.326Z,19.37
2018-06-14T19:14:20.698Z,19.37
2018-06-14T19:16:49.059Z,19.36
2018-06-14T19:19:17.435Z,19.36
2018-06-14T19:21:45.911Z,19.34
2018-06-14T19:24:14.354Z,19.36
2018-06-14T19:26:42.714Z,19.37
2018-06-14T19:29:11.123Z,19.35
2018-06-14T19:31:39.457Z,19.33
2018-06-14T19:34:07.850Z,19.31
2018-06-14T19:36:36.282Z,19.28
2018-06-14T19:39:07.010Z,19.29
2018-06-14T19:41:35.407Z,19.26
2018-06-14T19:44:03.852Z,19.23
2018-06-14T19:46:32.212Z,19.19
2018-06-14T19:49:00.689Z,19.18
2018-06-14T19:51:29.113Z,19.21
2018-06-14T19:53:57.471Z,19.20
2018-06-14T19:56:25.931Z,19.22
2018-06-14T19:58:54.475Z,19.24
2018-06-14T20:01:23.195Z,19.23
2018-06-14T20:03:51.796Z,19.19
2018-06-14T20:06:20.159Z,19.19
2018-06-14T20:08:48.827Z,19.18
2018-06-14T20:11:17.373Z,19.14
2018-06-14T20:13:46.037Z,19.11
2018-06-14T20:16:14.438Z,19.12
2018-06-14T20:18:42.895Z,19.14
2018-06-14T20:21:11.429Z,19.15
2018-06-14T20:23:39.730Z,19.15
2018-06-14T20:26:08.122Z,19.15
2018-06-14T20:28:36.523Z,19.15
2018-06-14T20:31:04.940Z,19.14
2018-06-14T20:33:33.296Z,19.11
2018-06-14T20:36:01.708Z,19.08
2018-06-14T20:38:30.098Z,19.03
2018-06-14T20:40:58.658Z,18.99
2018-06-14T20:43:27.050Z,18.99
2018-06-14T20:45:55.464Z,18.98
2018-06-14T20:48:23.861Z,19.01
2018-06-14T20:50:52.255Z,19.04
2018-06-14T20:53:20.756Z,19.03
2018-06-14T20:55:49.157Z,19.00
2018-06-14T20:58:17.579Z,18.98
2018-06-14T21:00:45.946Z,19.02
2018-06-14T21:03:14.329Z,19.07
2018-06-14T21:05:42.801Z,19.09
2018-06-14T21:08:11.180Z,19.11
2018-06-14T21:10:39.555Z,19.07
2018-06-14T21:13:07.924Z,19.07
2018-06-14T21:15:36.360Z,19.04
2018-06-14T21:18:04.727Z,19.01
2018-06-14T21:20:33.091Z,19.03
2018-06-14T21:23:01.571Z,19.05
2018-06-14T21:25:30.020Z,19.05
2018-06-14T21:27:58.399Z,19.06
2018-06-14T21:30:26.771Z,19.07
2018-06-14T21:32:55.180Z,19.08
2018-06-14T21:35:23.583Z,19.06
2018-06-14T21:37:51.968Z,19.02
2018-06-14T21:40:20.360Z,19.01
2018-06-14T21:42:48.832Z,18.95
2018-06-14T21:45:17.242Z,18.92
2018-06-14T21:47:45.607Z,18.93
2018-06-14T21:50:14.531Z,18.94
2018-06-14T21:52:42.996Z,18.93
2018-06-14T21:55:11.415Z,18.95
2018-06-14T21:57:39.827Z,18.94
2018-06-14T22:00:08.349Z,18.91
2018-06-14T22:03:43.537Z,18.88
2018-06-14T22:06:11.897Z,18.88
2018-06-14T22:08:40.308Z,18.87
2018-06-14T22:11:08.633Z,18.86
2018-06-14T22:13:37.149Z,18.86
2018-06-14T22:16:05.573Z,18.85
2018-06-14T22:18:33.950Z,18.85
2018-06-14T22:21:02.373Z,18.86
2018-06-14T22:23:30.748Z,18.86
2018-06-14T22:25:59.105Z,18.86
2018-06-14T22:28:27.515Z,18.88
2018-06-14T22:30:55.952Z,18.87
2018-06-14T22:33:35.475Z,18.88
2018-06-14T22:36:03.894Z,18.87
2018-06-14T22:38:32.367Z,18.82
2018-06-14T22:41:00.758Z,18.79
2018-06-14T22:43:29.099Z,18.78
2018-06-14T22:45:57.510Z,18.76
2018-06-14T22:48:25.932Z,18.74
2018-06-14T22:51:05.457Z,18.71
2018-06-14T22:53:33.927Z,18.69
2018-06-14T22:56:02.319Z,18.69
2018-06-14T22:58:30.745Z,18.66
2018-06-14T23:02:03.625Z,18.66
2018-06-14T23:04:33.257Z,18.67
2018-06-14T23:07:01.685Z,18.65
2018-06-14T23:10:42.896Z,18.63
2018-06-14T23:13:16.597Z,18.55
2018-06-14T23:15:45.014Z,18.54
2018-06-14T23:18:13.598Z,18.53
2018-06-14T23:20:41.988Z,18.57
2018-06-14T23:23:10.448Z,18.56
2018-06-14T23:25:39.130Z,18.57
2018-06-14T23:28:07.539Z,18.57
2018-06-14T23:30:35.897Z,18.57
2018-06-14T23:33:04.300Z,18.55
2018-06-14T23:35:32.700Z,18.56
2018-06-14T23:38:01.107Z,18.54
2018-06-14T23:40:29.484Z,18.52
2018-06-14T23:42:57.865Z,18.52
2018-06-14T23:45:26.316Z,18.50
2018-06-14T23:47:54.697Z,18.49
2018-06-14T23:50:23.131Z,18.49
2018-06-14T23:52:51.495Z,18.45
2018-06-14T23:55:19.907Z,18.46
2018-06-14T23:57:48.480Z,18.41
